createdAt,value
2023-02-28T00:02:44.252Z,0.50
2023-02-28T00:06:45.489Z,0.90
2023-02-28T00:10:46.450Z,0.50
2023-02-28T00:14:47.648Z,0.70
2023-02-28T00:18:49.541Z,0.40
2023-02-28T00:22:52.538Z,0.30
2023-02-28T00:26:53.604Z,0.00
2023-02-28T00:30:54.780Z,0.30
2023-02-28T00:34:56.367Z,0.00
2023-02-28T00:38:57.584Z,-0.20
2023-02-28T00:42:58.539Z,-0.30
2023-02-28T00:47:00.553Z,-0.20
2023-02-28T00:51:01.879Z,-0.40
2023-02-28T00:55:03.227Z,-0.40
2023-02-28T00:59:04.441Z,-0.30
2023-02-28T01:03:05.667Z,-0.50
2023-02-28T01:07:06.993Z,-0.20
2023-02-28T01:15:18.196Z,-0.20
2023-02-28T01:19:19.127Z,-1.10
2023-02-28T01:23:23.705Z,-0.90
2023-02-28T01:27:24.953Z,-0.70
2023-02-28T01:31:26.739Z,-1.00
2023-02-28T01:35:28.008Z,-0.60
2023-02-28T01:39:29.192Z,-0.60
2023-02-28T01:43:33.332Z,-0.90
2023-02-28T01:47:41.156Z,-1.30
2023-02-28T01:51:51.580Z,-1.20
2023-02-28T01:55:54.233Z,-1.30
2023-02-28T02:00:01.499Z,-1.70
2023-02-28T02:04:04.254Z,-1.90
2023-02-28T02:08:09.075Z,-1.60
2023-02-28T02:12:23.033Z,-1.90
2023-02-28T02:16:36.992Z,-2.00
2023-02-28T02:20:58.045Z,-1.60
2023-02-28T02:25:26.768Z,-1.80
2023-02-28T02:29:34.306Z,-2.00
2023-02-28T02:34:12.339Z,-1.50
2023-02-28T02:38:23.460Z,-1.70
2023-02-28T02:42:28.452Z,-1.70
2023-02-28T02:46:36.302Z,-1.50
2023-02-28T02:50:41.063Z,-1.40
2023-02-28T02:54:45.464Z,-1.90
2023-02-28T02:58:49.919Z,-1.90
2023-02-28T03:02:54.711Z,-1.60
2023-02-28T03:06:55.872Z,-1.20
2023-02-28T03:11:00.653Z,-1.40
2023-02-28T03:15:14.719Z,-1.60
2023-02-28T03:19:36.563Z,-2.00
2023-02-28T03:23:41.518Z,-1.80
2023-02-28T03:28:02.979Z,-2.20
2023-02-28T03:32:08.414Z,-2.40
2023-02-28T03:36:16.144Z,-2.20
2023-02-28T03:40:22.825Z,-2.20
2023-02-28T03:44:42.539Z,-1.70
2023-02-28T03:48:48.538Z,-2.20
2023-02-28T03:52:53.369Z,-1.90
2023-02-28T03:57:10.328Z,-1.80
2023-02-28T04:01:15.274Z,-1.90
2023-02-28T04:05:16.577Z,-2.10
2023-02-28T04:09:18.415Z,-2.00
2023-02-28T04:13:19.527Z,-1.80
2023-02-28T04:17:20.513Z,-2.40
2023-02-28T04:21:22.364Z,-1.90
2023-02-28T04:25:23.499Z,-2.30
2023-02-28T04:29:28.299Z,-2.00
2023-02-28T04:33:30.577Z,-2.10
2023-02-28T04:37:33.661Z,-2.20
2023-02-28T04:41:34.947Z,-2.30
2023-02-28T04:45:36.194Z,-2.40
2023-02-28T04:49:37.195Z,-1.60
2023-02-28T04:53:39.658Z,-1.90
2023-02-28T04:57:42.552Z,-2.10
2023-02-28T05:01:46.722Z,-2.20
2023-02-28T05:05:48.105Z,-2.00
2023-02-28T05:09:49.236Z,-2.10
2023-02-28T05:13:51.580Z,-1.90
2023-02-28T05:17:52.600Z,-2.40
2023-02-28T05:21:55.501Z,-2.20
2023-02-28T05:25:57.291Z,-2.20
2023-02-28T05:29:59.450Z,-2.10
2023-02-28T05:34:00.939Z,-2.20
2023-02-28T05:38:02.439Z,-1.80
2023-02-28T05:42:03.933Z,-2.30
2023-02-28T05:46:10.235Z,-2.30
2023-02-28T05:50:11.795Z,-2.00
2023-02-28T05:54:14.013Z,-2.00
2023-02-28T05:58:14.994Z,-2.70
2023-02-28T06:02:17.700Z,-2.20
2023-02-28T06:06:18.873Z,-2.40
2023-02-28T06:10:20.067Z,-2.40
2023-02-28T06:14:21.555Z,-2.40
2023-02-28T06:18:22.608Z,-2.00
2023-02-28T06:22:24.118Z,-2.30
2023-02-28T06:26:26.118Z,-2.80
2023-02-28T06:30:29.052Z,-2.30
2023-02-28T06:34:30.027Z,-2.10
2023-02-28T06:38:31.894Z,-2.40
2023-02-28T06:42:33.003Z,-2.00
2023-02-28T06:46:34.136Z,-2.30
2023-02-28T06:50:35.093Z,-2.10
2023-02-28T06:54:37.154Z,-2.10
2023-02-28T06:58:39.675Z,-2.00
2023-02-28T07:02:40.815Z,-1.80
2023-02-28T07:06:42.217Z,-1.70
2023-02-28T07:10:43.630Z,-1.70
2023-02-28T07:14:44.762Z,-1.60
2023-02-28T07:18:45.932Z,-1.40
2023-02-28T07:22:48.742Z,-1.80
2023-02-28T07:26:49.790Z,-1.50
2023-02-28T07:30:50.887Z,-1.40
2023-02-28T07:34:51.912Z,-1.50
2023-02-28T07:38:53.495Z,-1.20
2023-02-28T07:42:54.553Z,-1.10
2023-02-28T07:46:55.529Z,-1.00
2023-02-28T07:50:57.730Z,-0.70
2023-02-28T07:54:58.841Z,0.00
2023-02-28T07:58:59.804Z,-0.30
2023-02-28T08:03:01.100Z,-0.40
2023-02-28T08:07:02.275Z,0.10
2023-02-28T08:11:03.889Z,0.00
2023-02-28T08:15:06.039Z,0.00
2023-02-28T08:23:16.162Z,0.30
2023-02-28T08:27:17.850Z,0.20
2023-02-28T08:31:19.916Z,0.40
2023-02-28T08:35:21.159Z,1.20
2023-02-28T08:39:22.275Z,1.20
2023-02-28T08:43:23.366Z,0.80
2023-02-28T08:47:24.441Z,0.30
2023-02-28T08:51:29.024Z,0.40
2023-02-28T08:55:30.500Z,1.00
2023-02-28T08:59:32.684Z,0.30
2023-02-28T09:03:33.676Z,0.40
2023-02-28T09:07:34.883Z,1.60
2023-02-28T09:11:36.360Z,1.40
2023-02-28T09:15:38.326Z,2.10
2023-02-28T09:19:39.308Z,3.70
2023-02-28T09:23:41.711Z,3.40
2023-02-28T09:27:43.183Z,2.60
2023-02-28T09:31:44.172Z,3.90
2023-02-28T09:35:45.287Z,2.20
2023-02-28T09:39:46.290Z,2.30
2023-02-28T09:43:51.327Z,1.90
2023-02-28T09:47:56.027Z,1.80
2023-02-28T09:52:00.570Z,2.90
2023-02-28T09:56:14.588Z,1.20
2023-02-28T10:00:22.512Z,1.30
2023-02-28T10:04:55.762Z,2.00
2023-02-28T10:09:06.368Z,2.60
2023-02-28T10:13:19.976Z,2.10
2023-02-28T10:17:30.810Z,2.30
2023-02-28T10:21:41.605Z,3.80
2023-02-28T10:25:48.391Z,3.10
2023-02-28T10:29:52.487Z,1.10
2023-02-28T10:33:53.497Z,1.80
2023-02-28T10:37:57.633Z,2.30
2023-02-28T10:41:58.610Z,3.20
2023-02-28T10:46:14.318Z,2.90
2023-02-28T10:50:38.599Z,2.00
2023-02-28T10:54:41.237Z,4.30
2023-02-28T10:59:00.964Z,2.20
2023-02-28T11:03:02.220Z,2.30
2023-02-28T11:07:06.777Z,2.20
2023-02-28T11:11:07.989Z,1.60
2023-02-28T11:15:31.479Z,1.60
2023-02-28T11:19:39.037Z,3.30
2023-02-28T11:23:41.860Z,3.10
2023-02-28T11:27:49.940Z,3.80
2023-02-28T11:32:03.921Z,4.50
2023-02-28T11:36:11.048Z,5.40
2023-02-28T11:40:18.401Z,5.10
2023-02-28T11:44:23.353Z,3.70
2023-02-28T11:48:43.947Z,2.80
2023-02-28T11:52:54.675Z,3.40
2023-02-28T11:56:59.520Z,2.20
2023-02-28T12:01:26.852Z,2.60
2023-02-28T12:05:31.771Z,3.00
2023-02-28T12:09:54.516Z,4.50
2023-02-28T12:14:14.630Z,4.40
2023-02-28T12:18:22.201Z,5.10
2023-02-28T12:22:30.659Z,4.30
2023-02-28T12:26:44.176Z,2.50
2023-02-28T12:31:00.528Z,2.60
2023-02-28T12:35:08.113Z,2.70
2023-02-28T12:39:13.185Z,3.60
2023-02-28T12:43:17.229Z,2.70
2023-02-28T12:47:19.452Z,2.80
2023-02-28T12:51:21.516Z,4.60
2023-02-28T12:55:29.240Z,2.00
2023-02-28T12:59:40.365Z,2.80
2023-02-28T13:04:10.226Z,4.90
2023-02-28T13:08:28.322Z,2.40
2023-02-28T13:12:29.662Z,3.50
2023-02-28T13:16:53.042Z,2.80
2023-02-28T13:20:54.281Z,2.50
2023-02-28T13:24:56.834Z,2.90
2023-02-28T13:29:01.394Z,3.70
2023-02-28T13:33:09.591Z,3.40
2023-02-28T13:37:26.535Z,3.40
2023-02-28T13:41:37.606Z,4.70
2023-02-28T13:45:39.965Z,4.50
2023-02-28T13:49:41.612Z,5.50
2023-02-28T13:53:48.822Z,5.00
2023-02-28T13:58:10.309Z,3.80
2023-02-28T14:02:21.365Z,4.20
2023-02-28T14:06:30.894Z,4.00
2023-02-28T14:10:36.167Z,4.10
2023-02-28T14:14:40.984Z,4.00
2023-02-28T14:19:04.379Z,5.30
2023-02-28T14:23:09.469Z,3.20
2023-02-28T14:27:23.212Z,2.50
2023-02-28T14:31:28.027Z,2.60
2023-02-28T14:35:41.735Z,3.10
2023-02-28T14:39:44.178Z,4.00
2023-02-28T14:43:51.017Z,4.70
2023-02-28T14:47:53.002Z,4.70
2023-02-28T14:52:15.468Z,4.20
2023-02-28T14:56:37.268Z,5.20
2023-02-28T15:00:50.712Z,4.20
2023-02-28T15:05:01.181Z,4.40
2023-02-28T15:09:19.182Z,3.40
2023-02-28T15:13:20.792Z,3.20
2023-02-28T15:17:25.210Z,3.20
2023-02-28T15:21:38.880Z,2.80
2023-02-28T15:25:40.770Z,3.50
2023-02-28T15:29:49.855Z,3.60
2023-02-28T15:33:56.084Z,3.60
2023-02-28T15:38:03.445Z,4.50
2023-02-28T15:42:20.365Z,3.50
2023-02-28T15:46:21.936Z,4.30
2023-02-28T15:50:23.357Z,3.40
2023-02-28T15:54:35.530Z,3.40
2023-02-28T15:58:37.515Z,3.80
2023-02-28T16:02:40.357Z,3.00
2023-02-28T16:06:43.697Z,3.10
2023-02-28T16:10:45.765Z,3.30
2023-02-28T16:14:51.194Z,3.30
2023-02-28T16:18:53.158Z,5.00
2023-02-28T16:22:54.660Z,4.30
2023-02-28T16:26:57.381Z,4.20
2023-02-28T16:31:02.811Z,3.40
2023-02-28T16:35:06.368Z,3.20
2023-02-28T16:39:07.422Z,2.90
2023-02-28T16:43:12.283Z,2.50
2023-02-28T16:47:13.417Z,2.80
2023-02-28T16:51:18.547Z,3.20
2023-02-28T16:55:20.382Z,3.00
2023-02-28T16:59:26.854Z,3.20
2023-02-28T17:03:33.408Z,2.80
2023-02-28T17:07:32.050Z,3.20
2023-02-28T17:11:33.358Z,3.50
2023-02-28T17:15:35.518Z,4.10
2023-02-28T17:19:38.522Z,4.30
2023-02-28T17:23:39.716Z,3.20
2023-02-28T17:27:41.057Z,3.60
2023-02-28T17:31:42.565Z,3.50
2023-02-28T17:35:43.624Z,2.90
2023-02-28T17:39:45.110Z,2.90
2023-02-28T17:43:46.498Z,2.50
2023-02-28T17:47:50.581Z,2.90
2023-02-28T17:51:51.865Z,2.30
2023-02-28T17:55:53.008Z,2.70
2023-02-28T17:59:54.048Z,2.20
2023-02-28T18:03:56.076Z,2.60
2023-02-28T18:07:57.491Z,2.80
2023-02-28T18:12:00.437Z,2.10
2023-02-28T18:16:01.675Z,2.00
2023-02-28T18:20:04.855Z,1.80
2023-02-28T18:24:06.272Z,2.00
2023-02-28T18:28:07.372Z,2.20
2023-02-28T18:32:09.424Z,1.80
2023-02-28T18:36:10.565Z,1.80
2023-02-28T18:40:14.181Z,2.00
2023-02-28T18:44:20.867Z,1.90
2023-02-28T18:48:20.145Z,2.00
2023-02-28T18:52:21.323Z,1.70
2023-02-28T18:56:24.354Z,1.70
2023-02-28T19:00:25.740Z,1.30
2023-02-28T19:04:27.288Z,1.40
2023-02-28T19:08:28.506Z,1.40
2023-02-28T19:12:35.375Z,1.50
2023-02-28T19:16:36.794Z,1.10
2023-02-28T19:20:38.385Z,1.50
2023-02-28T19:24:39.721Z,1.50
2023-02-28T19:28:41.440Z,1.00
2023-02-28T19:32:43.197Z,1.20
2023-02-28T19:36:44.612Z,1.30
2023-02-28T19:40:46.142Z,1.30
2023-02-28T19:44:47.312Z,1.00
2023-02-28T19:48:48.467Z,0.20
2023-02-28T19:52:49.966Z,0.60
2023-02-28T19:56:54.017Z,0.60
2023-02-28T20:00:55.203Z,-0.10
2023-02-28T20:04:58.652Z,0.20
2023-02-28T20:09:00.214Z,0.40
2023-02-28T20:13:01.994Z,0.40
2023-02-28T20:17:05.449Z,0.40
2023-02-28T20:21:12.392Z,0.70
2023-02-28T20:25:13.925Z,0.30
2023-02-28T20:29:15.214Z,1.10
2023-02-28T20:33:17.410Z,1.10
2023-02-28T20:37:19.026Z,1.20
2023-02-28T20:41:21.213Z,0.70
2023-02-28T20:45:23.965Z,1.50
2023-02-28T20:49:25.482Z,1.80
2023-02-28T20:53:27.670Z,1.20
2023-02-28T20:57:29.903Z,1.80
2023-02-28T21:01:31.520Z,3.10
2023-02-28T21:05:32.605Z,3.30
2023-02-28T21:09:34.165Z,3.20
2023-02-28T21:13:35.828Z,3.00
2023-02-28T21:17:36.987Z,2.90
2023-02-28T21:21:42.697Z,2.90
2023-02-28T21:25:44.109Z,2.40
2023-02-28T21:29:45.400Z,2.90
2023-02-28T21:33:47.141Z,2.60
2023-02-28T21:37:48.279Z,2.40
2023-02-28T21:41:49.553Z,2.80
2023-02-28T21:45:50.572Z,2.40
2023-02-28T21:49:51.561Z,2.10
2023-02-28T21:53:53.579Z,2.20
2023-02-28T21:57:54.592Z,2.30
2023-02-28T22:01:55.820Z,2.00
2023-02-28T22:05:56.955Z,2.10
2023-02-28T22:09:58.120Z,0.40
2023-02-28T22:13:59.306Z,0.90
2023-02-28T22:18:00.433Z,0.10
2023-02-28T22:22:01.434Z,0.00
2023-02-28T22:26:04.829Z,0.20
2023-02-28T22:30:06.764Z,1.90
2023-02-28T22:34:10.322Z,2.30
2023-02-28T22:38:12.126Z,2.30
2023-02-28T22:42:13.266Z,2.40
2023-02-28T22:46:14.320Z,2.40
2023-02-28T22:50:15.925Z,2.20
2023-02-28T22:54:17.184Z,2.00
2023-02-28T22:58:19.238Z,1.70
2023-02-28T23:02:20.892Z,1.70
2023-02-28T23:06:31.243Z,1.60
2023-02-28T23:10:32.427Z,1.30
2023-02-28T23:14:33.729Z,1.90
2023-02-28T23:18:34.714Z,2.10
2023-02-28T23:22:35.778Z,1.70
2023-02-28T23:26:43.213Z,1.60
2023-02-28T23:30:44.269Z,1.80
2023-02-28T23:34:45.192Z,1.90
2023-02-28T23:38:48.531Z,1.50
2023-02-28T23:42:50.557Z,1.50
2023-02-28T23:46:52.461Z,1.30
2023-02-28T23:50:55.452Z,1.40
2023-02-28T23:54:56.465Z,1.70
2023-02-28T23:58:58.067Z,1.60
